Cherokee, Iowa
Current Conditions -  °F | °C
As of 10:35 AM on Saturday 22 Nov 2014 (Local Time) from KCKP Reporting Station
Haze Haze  
Wind Chill: 28°   Ceiling: 200
Heat Index: 37°   Visibility: 2mi
Dew Point: 37°   Wind: 13mph
Humidity: 100%   Direction: 220°SW
Pressure: 29.76"   Gusts: NA
Location:  42.75°N, 95.55°W
Report Text: KCKP 221635Z AUTO 22011KT 2SM BR OVC002 03/03 A2976 RMK AO2 T00250025
Loading
Personal Weather Stations






























Interactive Weather Map New forecast layout! Learn more

10-Day Weather Forecast

Advertisements
Track Severe Weather on mobile